sensor_id;sensor_type;location;lat;lon;timestamp;pressure;altitude;pressure_sealevel;temperature;humidity
74343;BME280;62767;50.300;8.070;2024-01-30T00:00:59;101260.38;;;18.17;36.21
74343;BME280;62767;50.300;8.070;2024-01-30T00:03:24;101259.53;;;18.16;36.42
74343;BME280;62767;50.300;8.070;2024-01-30T00:05:50;101258.69;;;18.16;36.24
74343;BME280;62767;50.300;8.070;2024-01-30T00:08:15;101253.63;;;18.13;36.22
74343;BME280;62767;50.300;8.070;2024-01-30T00:10:41;101258.16;;;18.10;36.33
74343;BME280;62767;50.300;8.070;2024-01-30T00:13:06;101251.09;;;18.11;36.27
74343;BME280;62767;50.300;8.070;2024-01-30T00:15:32;101250.34;;;18.09;36.23
74343;BME280;62767;50.300;8.070;2024-01-30T00:17:58;101248.78;;;18.06;36.20
74343;BME280;62767;50.300;8.070;2024-01-30T00:20:23;101251.06;;;17.98;36.42
74343;BME280;62767;50.300;8.070;2024-01-30T00:22:49;101249.50;;;17.96;36.48
74343;BME280;62767;50.300;8.070;2024-01-30T00:25:14;101247.81;;;17.95;36.41
74343;BME280;62767;50.300;8.070;2024-01-30T00:27:40;101253.16;;;17.93;36.47
74343;BME280;62767;50.300;8.070;2024-01-30T00:30:05;101254.03;;;17.94;36.50
74343;BME280;62767;50.300;8.070;2024-01-30T00:32:32;101256.66;;;17.94;36.43
74343;BME280;62767;50.300;8.070;2024-01-30T00:34:57;101257.50;;;17.94;36.55
74343;BME280;62767;50.300;8.070;2024-01-30T00:37:23;101263.53;;;17.96;36.50
74343;BME280;62767;50.300;8.070;2024-01-30T00:39:49;101260.88;;;17.96;36.56
74343;BME280;62767;50.300;8.070;2024-01-30T00:42:14;101266.88;;;17.98;36.50
74343;BME280;62767;50.300;8.070;2024-01-30T00:44:40;101260.56;;;18.01;36.47
74343;BME280;62767;50.300;8.070;2024-01-30T00:47:06;101270.88;;;18.04;36.38
74343;BME280;62767;50.300;8.070;2024-01-30T00:49:31;101264.59;;;18.06;36.44
74343;BME280;62767;50.300;8.070;2024-01-30T00:51:57;101262.78;;;18.07;36.52
74343;BME280;62767;50.300;8.070;2024-01-30T00:54:22;101262.56;;;18.10;36.31
74343;BME280;62767;50.300;8.070;2024-01-30T00:56:48;101265.97;;;18.12;36.20
74343;BME280;62767;50.300;8.070;2024-01-30T00:59:13;101264.06;;;18.14;36.29
74343;BME280;62767;50.300;8.070;2024-01-30T01:01:39;101260.59;;;18.14;36.26
74343;BME280;62767;50.300;8.070;2024-01-30T01:04:04;101257.84;;;18.15;36.27
74343;BME280;62767;50.300;8.070;2024-01-30T01:06:30;101251.72;;;18.15;36.32
74343;BME280;62767;50.300;8.070;2024-01-30T01:08:55;101249.22;;;18.13;36.27
74343;BME280;62767;50.300;8.070;2024-01-30T01:11:21;101256.16;;;18.14;36.31
74343;BME280;62767;50.300;8.070;2024-01-30T01:13:46;101253.41;;;18.16;36.14
74343;BME280;62767;50.300;8.070;2024-01-30T01:16:12;101257.00;;;18.15;36.12
74343;BME280;62767;50.300;8.070;2024-01-30T01:18:37;101251.94;;;18.11;36.10
74343;BME280;62767;50.300;8.070;2024-01-30T01:21:03;101252.97;;;18.09;36.20
74343;BME280;62767;50.300;8.070;2024-01-30T01:23:28;101253.94;;;18.08;36.10
74343;BME280;62767;50.300;8.070;2024-01-30T01:25:54;101244.22;;;18.08;36.00
74343;BME280;62767;50.300;8.070;2024-01-30T01:28:20;101248.88;;;18.05;36.07
74343;BME280;62767;50.300;8.070;2024-01-30T01:30:46;101249.38;;;17.97;36.22
74343;BME280;62767;50.300;8.070;2024-01-30T01:33:11;101246.13;;;17.94;36.43
74343;BME280;62767;50.300;8.070;2024-01-30T01:35:39;101248.84;;;17.92;36.44
74343;BME280;62767;50.300;8.070;2024-01-30T01:38:05;101249.69;;;17.93;36.34
74343;BME280;62767;50.300;8.070;2024-01-30T01:40:30;101250.75;;;17.90;36.29
74343;BME280;62767;50.300;8.070;2024-01-30T01:42:56;101248.97;;;17.91;36.31
74343;BME280;62767;50.300;8.070;2024-01-30T01:45:22;101242.72;;;17.92;36.36
74343;BME280;62767;50.300;8.070;2024-01-30T01:47:50;101247.06;;;17.93;36.43
74343;BME280;62767;50.300;8.070;2024-01-30T01:50:17;101246.97;;;17.94;36.44
74343;BME280;62767;50.300;8.070;2024-01-30T01:52:47;101242.53;;;17.95;36.42
74343;BME280;62767;50.300;8.070;2024-01-30T01:55:15;101245.09;;;17.96;36.36
74343;BME280;62767;50.300;8.070;2024-01-30T01:57:41;101243.16;;;17.98;36.33
74343;BME280;62767;50.300;8.070;2024-01-30T02:00:08;101242.97;;;18.01;36.36
74343;BME280;62767;50.300;8.070;2024-01-30T02:02:36;101235.78;;;18.03;36.38
74343;BME280;62767;50.300;8.070;2024-01-30T02:05:02;101231.28;;;18.05;36.22
74343;BME280;62767;50.300;8.070;2024-01-30T02:07:29;101232.03;;;18.07;36.31
74343;BME280;62767;50.300;8.070;2024-01-30T02:09:55;101235.38;;;18.09;36.31
74343;BME280;62767;50.300;8.070;2024-01-30T02:12:20;101234.44;;;18.10;36.14
74343;BME280;62767;50.300;8.070;2024-01-30T02:14:47;101240.56;;;18.11;36.14
74343;BME280;62767;50.300;8.070;2024-01-30T02:17:13;101237.81;;;18.13;36.20
74343;BME280;62767;50.300;8.070;2024-01-30T02:19:39;101238.66;;;18.13;36.24
74343;BME280;62767;50.300;8.070;2024-01-30T02:22:05;101240.47;;;18.13;36.04
74343;BME280;62767;50.300;8.070;2024-01-30T02:24:31;101230.88;;;18.11;36.18
74343;BME280;62767;50.300;8.070;2024-01-30T02:26:57;101225.59;;;18.11;36.05
74343;BME280;62767;50.300;8.070;2024-01-30T02:29:22;101230.88;;;18.11;36.00
74343;BME280;62767;50.300;8.070;2024-01-30T02:31:48;101226.63;;;18.09;36.05
74343;BME280;62767;50.300;8.070;2024-01-30T02:34:13;101231.06;;;18.08;35.95
74343;BME280;62767;50.300;8.070;2024-01-30T02:36:42;101226.75;;;18.07;36.05
74343;BME280;62767;50.300;8.070;2024-01-30T02:39:08;101225.91;;;18.07;35.99
74343;BME280;62767;50.300;8.070;2024-01-30T02:41:33;101227.16;;;18.01;36.06
74343;BME280;62767;50.300;8.070;2024-01-30T02:43:59;101222.41;;;17.94;36.19
74343;BME280;62767;50.300;8.070;2024-01-30T02:46:24;101223.56;;;17.90;36.26
74343;BME280;62767;50.300;8.070;2024-01-30T02:48:50;101224.41;;;17.90;36.27
74343;BME280;62767;50.300;8.070;2024-01-30T02:51:16;101222.72;;;17.89;36.26
74343;BME280;62767;50.300;8.070;2024-01-30T02:53:41;101221.03;;;17.88;36.32
74343;BME280;62767;50.300;8.070;2024-01-30T02:56:07;101219.25;;;17.89;36.28
74343;BME280;62767;50.300;8.070;2024-01-30T02:58:35;101221.78;;;17.90;36.14
74343;BME280;62767;50.300;8.070;2024-01-30T03:01:02;101221.78;;;17.90;36.27
74343;BME280;62767;50.300;8.070;2024-01-30T03:03:28;101217.25;;;17.92;36.09
74343;BME280;62767;50.300;8.070;2024-01-30T03:05:53;101214.50;;;17.94;36.40
74343;BME280;62767;50.300;8.070;2024-01-30T03:08:19;101213.56;;;17.95;36.33
74343;BME280;62767;50.300;8.070;2024-01-30T03:10:45;101213.47;;;17.96;36.16
74343;BME280;62767;50.300;8.070;2024-01-30T03:13:10;101215.88;;;17.99;36.26
74343;BME280;62767;50.300;8.070;2024-01-30T03:15:36;101217.47;;;18.02;36.23
74343;BME280;62767;50.300;8.070;2024-01-30T03:18:02;101215.69;;;18.02;36.18
74343;BME280;62767;50.300;8.070;2024-01-30T03:20:29;101215.47;;;18.05;36.08
74343;BME280;62767;50.300;8.070;2024-01-30T03:22:55;101213.59;;;18.07;36.18
74343;BME280;62767;50.300;8.070;2024-01-30T03:25:21;101213.47;;;18.09;36.05
74343;BME280;62767;50.300;8.070;2024-01-30T03:27:46;101213.47;;;18.09;35.86
74343;BME280;62767;50.300;8.070;2024-01-30T03:30:12;101215.16;;;18.10;36.09
74343;BME280;62767;50.300;8.070;2024-01-30T03:32:37;101208.19;;;18.09;36.06
74343;BME280;62767;50.300;8.070;2024-01-30T03:35:03;101209.88;;;18.10;36.08
74343;BME280;62767;50.300;8.070;2024-01-30T03:37:29;101206.31;;;18.11;36.05
74343;BME280;62767;50.300;8.070;2024-01-30T03:39:55;101205.56;;;18.09;35.83
74343;BME280;62767;50.300;8.070;2024-01-30T03:42:21;101202.06;;;18.08;35.95
74343;BME280;62767;50.300;8.070;2024-01-30T03:44:47;101211.78;;;18.08;36.01
74343;BME280;62767;50.300;8.070;2024-01-30T03:47:13;101204.09;;;18.05;35.93
74343;BME280;62767;50.300;8.070;2024-01-30T03:49:38;101203.34;;;18.03;35.81
74343;BME280;62767;50.300;8.070;2024-01-30T03:52:04;101201.78;;;18.00;35.86
74343;BME280;62767;50.300;8.070;2024-01-30T03:54:29;101200.41;;;17.95;35.96
74343;BME280;62767;50.300;8.070;2024-01-30T03:56:55;101204.28;;;17.89;36.09
74343;BME280;62767;50.300;8.070;2024-01-30T03:59:20;101209.56;;;17.89;36.10
74343;BME280;62767;50.300;8.070;2024-01-30T04:01:51;101210.50;;;17.88;36.13
74343;BME280;62767;50.300;8.070;2024-01-30T04:04:20;101197.44;;;17.87;36.14
74343;BME280;62767;50.300;8.070;2024-01-30T04:06:46;101202.81;;;17.85;36.13
74343;BME280;62767;50.300;8.070;2024-01-30T04:09:15;101194.78;;;17.87;36.06
74343;BME280;62767;50.300;8.070;2024-01-30T04:11:41;101200.91;;;17.87;36.17
74343;BME280;62767;50.300;8.070;2024-01-30T04:14:07;101195.63;;;17.87;36.17
74343;BME280;62767;50.300;8.070;2024-01-30T04:16:33;101197.22;;;17.90;36.22
74343;BME280;62767;50.300;8.070;2024-01-30T04:18:59;101197.94;;;17.92;36.14
74343;BME280;62767;50.300;8.070;2024-01-30T04:21:24;101201.44;;;17.92;36.23
74343;BME280;62767;50.300;8.070;2024-01-30T04:23:53;101205.66;;;17.95;36.17
74343;BME280;62767;50.300;8.070;2024-01-30T04:26:18;101195.03;;;17.96;36.11
74343;BME280;62767;50.300;8.070;2024-01-30T04:28:44;101191.31;;;17.99;36.18
74343;BME280;62767;50.300;8.070;2024-01-30T04:31:10;101195.56;;;18.01;36.06
74343;BME280;62767;50.300;8.070;2024-01-30T04:33:36;101194.63;;;18.02;36.03
74343;BME280;62767;50.300;8.070;2024-01-30T04:36:02;101199.66;;;18.05;36.10
74343;BME280;62767;50.300;8.070;2024-01-30T04:38:28;101204.94;;;18.05;36.02
74343;BME280;62767;50.300;8.070;2024-01-30T04:40:54;101211.91;;;18.06;35.97
74343;BME280;62767;50.300;8.070;2024-01-30T04:43:19;101204.84;;;18.07;35.96
74343;BME280;62767;50.300;8.070;2024-01-30T04:45:45;101218.84;;;18.07;35.94
74343;BME280;62767;50.300;8.070;2024-01-30T04:48:10;101207.47;;;18.07;35.96
74343;BME280;62767;50.300;8.070;2024-01-30T04:50:36;101200.28;;;18.09;35.88
74343;BME280;62767;50.300;8.070;2024-01-30T04:53:01;101198.50;;;18.09;35.90
74343;BME280;62767;50.300;8.070;2024-01-30T04:55:27;101198.63;;;18.08;35.86
74343;BME280;62767;50.300;8.070;2024-01-30T04:57:52;101206.72;;;18.05;35.91
74343;BME280;62767;50.300;8.070;2024-01-30T05:00:18;101199.03;;;18.02;35.88
74343;BME280;62767;50.300;8.070;2024-01-30T05:02:44;101201.78;;;18.00;35.80
74343;BME280;62767;50.300;8.070;2024-01-30T05:05:09;101201.03;;;17.98;35.75
74343;BME280;62767;50.300;8.070;2024-01-30T05:07:36;101202.19;;;17.94;35.96
74343;BME280;62767;50.300;8.070;2024-01-30T05:10:02;101208.72;;;17.89;36.05
74343;BME280;62767;50.300;8.070;2024-01-30T05:12:28;101206.16;;;17.87;36.04
74343;BME280;62767;50.300;8.070;2024-01-30T05:14:54;101202.69;;;17.87;36.04
74343;BME280;62767;50.300;8.070;2024-01-30T05:17:20;101207.13;;;17.86;36.06
74343;BME280;62767;50.300;8.070;2024-01-30T05:19:45;101204.59;;;17.85;36.04
74343;BME280;62767;50.300;8.070;2024-01-30T05:22:11;101199.34;;;17.85;36.03
74343;BME280;62767;50.300;8.070;2024-01-30T05:24:41;101208.09;;;17.85;36.19
74343;BME280;62767;50.300;8.070;2024-01-30T05:27:07;101201.84;;;17.86;36.17
74343;BME280;62767;50.300;8.070;2024-01-30T05:29:33;101199.13;;;17.88;36.02
74343;BME280;62767;50.300;8.070;2024-01-30T05:31:58;101202.50;;;17.90;36.16
74343;BME280;62767;50.300;8.070;2024-01-30T05:34:24;101195.44;;;17.90;36.15
74343;BME280;62767;50.300;8.070;2024-01-30T05:36:49;101203.22;;;17.92;36.08
74343;BME280;62767;50.300;8.070;2024-01-30T05:39:15;101204.81;;;17.94;36.02
74343;BME280;62767;50.300;8.070;2024-01-30T05:41:40;101200.31;;;17.96;36.13
74343;BME280;62767;50.300;8.070;2024-01-30T05:44:06;101201.03;;;17.98;36.03
74343;BME280;62767;50.300;8.070;2024-01-30T05:46:31;101205.25;;;18.01;36.15
74343;BME280;62767;50.300;8.070;2024-01-30T05:48:57;101205.97;;;18.03;35.98
74343;BME280;62767;50.300;8.070;2024-01-30T05:51:23;101202.38;;;18.04;35.94
74343;BME280;62767;50.300;8.070;2024-01-30T05:53:48;101207.56;;;18.05;36.03
74343;BME280;62767;50.300;8.070;2024-01-30T05:56:14;101203.25;;;18.04;35.94
74343;BME280;62767;50.300;8.070;2024-01-30T05:58:40;101201.44;;;18.05;36.07
74343;BME280;62767;50.300;8.070;2024-01-30T06:01:09;101196.94;;;18.07;35.87
74343;BME280;62767;50.300;8.070;2024-01-30T06:03:35;101194.28;;;18.07;35.79
74343;BME280;62767;50.300;8.070;2024-01-30T06:06:00;101196.09;;;18.06;35.78
74343;BME280;62767;50.300;8.070;2024-01-30T06:08:26;101197.88;;;18.06;35.75
74343;BME280;62767;50.300;8.070;2024-01-30T06:10:51;101206.72;;;18.05;35.71
74343;BME280;62767;50.300;8.070;2024-01-30T06:13:17;101198.19;;;18.01;35.68
74343;BME280;62767;50.300;8.070;2024-01-30T06:15:43;101200.06;;;17.99;35.70
74343;BME280;62767;50.300;8.070;2024-01-30T06:18:08;101201.97;;;17.97;35.85
74343;BME280;62767;50.300;8.070;2024-01-30T06:20:34;101212.72;;;17.94;35.78
74343;BME280;62767;50.300;8.070;2024-01-30T06:22:59;101207.00;;;17.88;36.00
74343;BME280;62767;50.300;8.070;2024-01-30T06:25:25;101195.84;;;17.84;35.98
74343;BME280;62767;50.300;8.070;2024-01-30T06:27:50;101202.91;;;17.84;36.08
74343;BME280;62767;50.300;8.070;2024-01-30T06:30:16;101210.81;;;17.84;35.95
74343;BME280;62767;50.300;8.070;2024-01-30T06:32:42;101202.06;;;17.83;35.94
74343;BME280;62767;50.300;8.070;2024-01-30T06:35:08;101204.69;;;17.83;36.15
74343;BME280;62767;50.300;8.070;2024-01-30T06:37:34;101208.28;;;17.82;36.03
74343;BME280;62767;50.300;8.070;2024-01-30T06:39:59;101213.44;;;17.84;36.04
74343;BME280;62767;50.300;8.070;2024-01-30T06:42:25;101204.47;;;17.86;35.97
74343;BME280;62767;50.300;8.070;2024-01-30T06:44:50;101200.91;;;17.87;35.72
74343;BME280;62767;50.300;8.070;2024-01-30T06:47:16;101200.81;;;17.89;36.03
74343;BME280;62767;50.300;8.070;2024-01-30T06:49:41;101212.91;;;17.91;35.91
74343;BME280;62767;50.300;8.070;2024-01-30T06:52:09;101205.84;;;17.92;35.97
74343;BME280;62767;50.300;8.070;2024-01-30T06:54:34;101208.28;;;17.95;36.04
74343;BME280;62767;50.300;8.070;2024-01-30T06:57:00;101200.31;;;17.96;35.98
74343;BME280;62767;50.300;8.070;2024-01-30T06:59:25;101208.91;;;17.98;35.93
74343;BME280;62767;50.300;8.070;2024-01-30T07:01:51;101207.88;;;18.01;36.00
74343;BME280;62767;50.300;8.070;2024-01-30T07:04:16;101207.66;;;18.04;35.92
74343;BME280;62767;50.300;8.070;2024-01-30T07:06:43;101205.03;;;18.04;35.92
74343;BME280;62767;50.300;8.070;2024-01-30T07:09:09;101208.50;;;18.04;35.88
74343;BME280;62767;50.300;8.070;2024-01-30T07:11:35;101212.84;;;18.05;35.78
74343;BME280;62767;50.300;8.070;2024-01-30T07:14:00;101207.56;;;18.05;35.83
74343;BME280;62767;50.300;8.070;2024-01-30T07:16:29;101202.28;;;18.05;35.76
74343;BME280;62767;50.300;8.070;2024-01-30T07:18:54;101205.88;;;18.04;35.76
74343;BME280;62767;50.300;8.070;2024-01-30T07:21:20;101211.91;;;18.06;36.03
74343;BME280;62767;50.300;8.070;2024-01-30T07:23:47;101209.00;;;17.97;36.57
74343;BME280;62767;50.300;8.070;2024-01-30T07:26:12;101213.25;;;17.99;36.63
74343;BME280;62767;50.300;8.070;2024-01-30T07:28:38;101215.56;;;18.04;36.77
74343;BME280;62767;50.300;8.070;2024-01-30T07:31:03;101219.47;;;18.11;36.79
74343;BME280;62767;50.300;8.070;2024-01-30T07:33:29;101206.81;;;18.16;36.68
74343;BME280;62767;50.300;8.070;2024-01-30T07:35:54;101218.31;;;18.15;36.81
74343;BME280;62767;50.300;8.070;2024-01-30T07:38:20;101223.91;;;18.10;36.83
74343;BME280;62767;50.300;8.070;2024-01-30T07:40:46;101229.25;;;18.09;36.79
74343;BME280;62767;50.300;8.070;2024-01-30T07:43:11;101228.84;;;18.15;36.59
74343;BME280;62767;50.300;8.070;2024-01-30T07:45:37;101226.03;;;18.31;36.94
74343;BME280;62767;50.300;8.070;2024-01-30T07:48:05;101225.28;;;18.41;36.66
74343;BME280;62767;50.300;8.070;2024-01-30T07:50:30;101220.75;;;18.56;36.76
74343;BME280;62767;50.300;8.070;2024-01-30T07:52:56;101232.13;;;18.69;36.45
74343;BME280;62767;50.300;8.070;2024-01-30T07:55:22;101236.66;;;18.80;36.27
74343;BME280;62767;50.300;8.070;2024-01-30T07:57:54;101240.56;;;18.87;36.29
74343;BME280;62767;50.300;8.070;2024-01-30T08:00:21;101237.38;;;18.95;36.29
74343;BME280;62767;50.300;8.070;2024-01-30T08:02:46;101246.50;;;19.02;36.21
74343;BME280;62767;50.300;8.070;2024-01-30T08:05:12;101246.09;;;19.08;36.23
74343;BME280;62767;50.300;8.070;2024-01-30T08:07:41;101234.13;;;19.15;36.38
74343;BME280;62767;50.300;8.070;2024-01-30T08:10:08;101234.53;;;19.21;36.33
74343;BME280;62767;50.300;8.070;2024-01-30T08:12:33;101243.81;;;19.27;35.94
74343;BME280;62767;50.300;8.070;2024-01-30T08:14:59;101252.84;;;19.35;35.87
74343;BME280;62767;50.300;8.070;2024-01-30T08:17:24;101243.63;;;19.41;35.88
74343;BME280;62767;50.300;8.070;2024-01-30T08:19:50;101245.31;;;19.42;35.79
74343;BME280;62767;50.300;8.070;2024-01-30T08:22:15;101249.47;;;19.46;35.69
74343;BME280;62767;50.300;8.070;2024-01-30T08:24:41;101246.00;;;19.46;35.80
74343;BME280;62767;50.300;8.070;2024-01-30T08:27:07;101242.50;;;19.45;36.02
74343;BME280;62767;50.300;8.070;2024-01-30T08:29:35;101246.91;;;19.45;36.04
74343;BME280;62767;50.300;8.070;2024-01-30T08:32:01;101236.34;;;19.45;35.98
74343;BME280;62767;50.300;8.070;2024-01-30T08:34:26;101232.13;;;19.42;36.08
74343;BME280;62767;50.300;8.070;2024-01-30T08:36:52;101231.63;;;19.37;36.13
74343;BME280;62767;50.300;8.070;2024-01-30T08:39:18;101237.84;;;19.36;36.19
74343;BME280;62767;50.300;8.070;2024-01-30T08:41:43;101243.38;;;19.33;36.30
74343;BME280;62767;50.300;8.070;2024-01-30T08:44:09;101236.75;;;19.27;36.45
74343;BME280;62767;50.300;8.070;2024-01-30T08:46:36;101237.59;;;19.28;36.42
74343;BME280;62767;50.300;8.070;2024-01-30T08:49:02;101246.56;;;19.25;36.44
74343;BME280;62767;50.300;8.070;2024-01-30T08:51:30;101245.59;;;19.26;36.44
74343;BME280;62767;50.300;8.070;2024-01-30T08:53:56;101246.84;;;19.33;36.31
74343;BME280;62767;50.300;8.070;2024-01-30T08:56:22;101237.75;;;19.38;36.44
74343;BME280;62767;50.300;8.070;2024-01-30T08:58:48;101236.34;;;19.45;36.37
74343;BME280;62767;50.300;8.070;2024-01-30T09:01:14;101233.41;;;19.49;36.12
74343;BME280;62767;50.300;8.070;2024-01-30T09:03:39;101246.88;;;19.57;36.11
74343;BME280;62767;50.300;8.070;2024-01-30T09:06:12;101241.25;;;19.62;36.19
74343;BME280;62767;50.300;8.070;2024-01-30T09:08:38;101235.63;;;19.66;35.90
74343;BME280;62767;50.300;8.070;2024-01-30T09:11:14;101243.94;;;19.73;36.03
74343;BME280;62767;50.300;8.070;2024-01-30T09:13:40;101242.66;;;19.79;35.89
74343;BME280;62767;50.300;8.070;2024-01-30T09:16:07;101246.97;;;19.80;35.82
74343;BME280;62767;50.300;8.070;2024-01-30T09:18:33;101253.59;;;19.85;35.86
74343;BME280;62767;50.300;8.070;2024-01-30T09:20:58;101258.53;;;19.90;36.05
74343;BME280;62767;50.300;8.070;2024-01-30T09:23:24;101257.34;;;19.94;35.84
74343;BME280;62767;50.300;8.070;2024-01-30T09:25:50;101259.66;;;19.98;35.76
74343;BME280;62767;50.300;8.070;2024-01-30T09:28:16;101254.13;;;20.01;35.78
74343;BME280;62767;50.300;8.070;2024-01-30T09:30:42;101253.78;;;20.06;35.81
74343;BME280;62767;50.300;8.070;2024-01-30T09:33:07;101249.31;;;20.06;35.71
74343;BME280;62767;50.300;8.070;2024-01-30T09:35:33;101251.97;;;20.06;35.84
74343;BME280;62767;50.300;8.070;2024-01-30T09:37:59;101246.78;;;20.05;35.87
74343;BME280;62767;50.300;8.070;2024-01-30T09:40:25;101255.56;;;20.05;35.87
74343;BME280;62767;50.300;8.070;2024-01-30T09:42:51;101249.56;;;20.03;35.81
74343;BME280;62767;50.300;8.070;2024-01-30T09:45:20;101247.16;;;20.00;36.15
74343;BME280;62767;50.300;8.070;2024-01-30T09:47:48;101255.06;;;20.00;35.99
74343;BME280;62767;50.300;8.070;2024-01-30T09:50:15;101250.50;;;19.91;35.81
74343;BME280;62767;50.300;8.070;2024-01-30T09:52:41;101259.91;;;19.35;36.24
74343;BME280;62767;50.300;8.070;2024-01-30T09:55:08;101261.25;;;19.53;36.32
74343;BME280;62767;50.300;8.070;2024-01-30T09:57:34;101259.25;;;19.57;36.33
74343;BME280;62767;50.300;8.070;2024-01-30T10:00:01;101261.53;;;19.61;36.45
74343;BME280;62767;50.300;8.070;2024-01-30T10:02:38;101266.09;;;19.59;36.47
74343;BME280;62767;50.300;8.070;2024-01-30T10:05:04;101253.81;;;19.58;36.39
74343;BME280;62767;50.300;8.070;2024-01-30T10:07:30;101256.25;;;19.61;36.38
74343;BME280;62767;50.300;8.070;2024-01-30T10:09:56;101253.28;;;19.66;36.23
74343;BME280;62767;50.300;8.070;2024-01-30T10:12:29;101249.56;;;19.68;36.32
74343;BME280;62767;50.300;8.070;2024-01-30T10:14:56;101251.97;;;19.71;36.40
74343;BME280;62767;50.300;8.070;2024-01-30T10:17:24;101241.06;;;19.76;36.43
74343;BME280;62767;50.300;8.070;2024-01-30T10:19:50;101254.44;;;19.86;36.26
74343;BME280;62767;50.300;8.070;2024-01-30T10:22:16;101251.44;;;19.90;36.18
74343;BME280;62767;50.300;8.070;2024-01-30T10:24:42;101251.00;;;19.96;36.25
74343;BME280;62767;50.300;8.070;2024-01-30T10:27:10;101248.94;;;20.00;36.00
74343;BME280;62767;50.300;8.070;2024-01-30T10:29:37;101246.94;;;20.03;35.93
74343;BME280;62767;50.300;8.070;2024-01-30T10:32:04;101259.69;;;20.09;36.17
74343;BME280;62767;50.300;8.070;2024-01-30T10:34:32;101250.31;;;20.16;35.79
74343;BME280;62767;50.300;8.070;2024-01-30T10:37:10;101241.31;;;20.19;35.85
74343;BME280;62767;50.300;8.070;2024-01-30T10:39:40;101240.94;;;20.24;35.87
74343;BME280;62767;50.300;8.070;2024-01-30T10:42:07;101248.53;;;20.28;36.03
74343;BME280;62767;50.300;8.070;2024-01-30T10:47:27;101241.31;;;20.30;35.83
74343;BME280;62767;50.300;8.070;2024-01-30T10:49:56;101241.25;;;20.32;36.08
74343;BME280;62767;50.300;8.070;2024-01-30T10:52:25;101243.22;;;20.28;36.03
74343;BME280;62767;50.300;8.070;2024-01-30T10:54:51;101244.34;;;20.26;35.92
74343;BME280;62767;50.300;8.070;2024-01-30T10:57:18;101244.34;;;20.26;36.01
74343;BME280;62767;50.300;8.070;2024-01-30T10:59:44;101245.28;;;20.25;36.18
74343;BME280;62767;50.300;8.070;2024-01-30T11:02:11;101249.25;;;20.19;36.22
74343;BME280;62767;50.300;8.070;2024-01-30T11:04:37;101245.25;;;20.13;36.29
74343;BME280;62767;50.300;8.070;2024-01-30T11:07:13;101248.38;;;20.07;36.48
74343;BME280;62767;50.300;8.070;2024-01-30T11:09:40;101244.28;;;20.03;36.52
74343;BME280;62767;50.300;8.070;2024-01-30T11:12:12;101237.91;;;20.06;36.44
74343;BME280;62767;50.300;8.070;2024-01-30T11:14:37;101237.41;;;20.01;36.50
74343;BME280;62767;50.300;8.070;2024-01-30T11:17:05;101240.31;;;19.98;36.70
74343;BME280;62767;50.300;8.070;2024-01-30T11:19:31;101238.63;;;19.97;36.63
74343;BME280;62767;50.300;8.070;2024-01-30T11:21:57;101241.97;;;19.99;36.70
74343;BME280;62767;50.300;8.070;2024-01-30T11:24:23;101254.97;;;20.02;36.63
74343;BME280;62767;50.300;8.070;2024-01-30T11:26:55;101255.47;;;20.07;36.53
74343;BME280;62767;50.300;8.070;2024-01-30T11:29:27;101251.75;;;20.09;36.61
74343;BME280;62767;50.300;8.070;2024-01-30T11:31:57;101241.78;;;20.13;36.90
74343;BME280;62767;50.300;8.070;2024-01-30T11:34:23;101243.84;;;20.21;36.66
74343;BME280;62767;50.300;8.070;2024-01-30T11:36:55;101244.44;;;20.24;36.68
74343;BME280;62767;50.300;8.070;2024-01-30T11:39:26;101240.47;;;20.30;36.52
74343;BME280;62767;50.300;8.070;2024-01-30T11:41:52;101238.25;;;20.36;36.42
74343;BME280;62767;50.300;8.070;2024-01-30T11:44:19;101241.47;;;20.40;36.15
74343;BME280;62767;50.300;8.070;2024-01-30T11:46:52;101230.44;;;20.46;36.32
74343;BME280;62767;50.300;8.070;2024-01-30T11:49:18;101229.38;;;20.48;36.19
74343;BME280;62767;50.300;8.070;2024-01-30T11:51:47;101222.03;;;20.52;36.36
74343;BME280;62767;50.300;8.070;2024-01-30T11:54:15;101227.19;;;20.53;36.18
74343;BME280;62767;50.300;8.070;2024-01-30T11:56:42;101213.59;;;20.58;36.21
74343;BME280;62767;50.300;8.070;2024-01-30T11:59:08;101208.41;;;20.56;36.17
74343;BME280;62767;50.300;8.070;2024-01-30T12:01:34;101204.94;;;20.56;36.27
74343;BME280;62767;50.300;8.070;2024-01-30T12:04:00;101208.78;;;20.52;36.22
74343;BME280;62767;50.300;8.070;2024-01-30T12:06:25;101204.34;;;20.52;36.16
74343;BME280;62767;50.300;8.070;2024-01-30T12:08:59;101199.44;;;20.48;36.41
74343;BME280;62767;50.300;8.070;2024-01-30T12:11:28;101200.63;;;20.44;36.58
74343;BME280;62767;50.300;8.070;2024-01-30T12:13:55;101186.56;;;20.43;36.46
74343;BME280;62767;50.300;8.070;2024-01-30T12:16:21;101174.78;;;20.36;36.75
74343;BME280;62767;50.300;8.070;2024-01-30T12:18:47;101175.16;;;20.32;36.71
74343;BME280;62767;50.300;8.070;2024-01-30T12:21:16;101176.44;;;20.26;36.88
74343;BME280;62767;50.300;8.070;2024-01-30T12:23:43;101165.00;;;20.26;36.98
74343;BME280;62767;50.300;8.070;2024-01-30T12:26:08;101156.78;;;19.84;36.21
74343;BME280;62767;50.300;8.070;2024-01-30T12:28:35;101156.47;;;19.54;36.65
74343;BME280;62767;50.300;8.070;2024-01-30T12:31:04;101154.94;;;19.39;36.97
74343;BME280;62767;50.300;8.070;2024-01-30T12:33:30;101156.59;;;19.28;37.23
74343;BME280;62767;50.300;8.070;2024-01-30T12:35:56;101148.50;;;19.19;37.29
74343;BME280;62767;50.300;8.070;2024-01-30T12:38:23;101151.47;;;19.14;37.38
74343;BME280;62767;50.300;8.070;2024-01-30T12:40:49;101148.91;;;19.49;37.04
74343;BME280;62767;50.300;8.070;2024-01-30T12:43:15;101145.25;;;19.74;36.78
74343;BME280;62767;50.300;8.070;2024-01-30T12:45:41;101140.22;;;19.93;36.82
74343;BME280;62767;50.300;8.070;2024-01-30T12:48:08;101136.63;;;20.05;36.52